Indianapolis, Indiana
Traffic Map
Current Weather Conditions
Indianapolis, Indiana
Broken Clouds Light Fog
Broken Clouds

Feels Like: 7°
Wind Chill: Ceiling: 25000
Heat Index: Visibility: 5mi
Dew Point: Wind: 5mph
Humidity: 97% Direction: 140° (SE)
Pressure: 29.63in Gusts: 0mph
Raw Report DataKIND 211334Z 14004KT 5SM R05L/1400VP6000FT BR BCFG SCT035 BKN250 08/08 A2963 RMK AO2 T00830078
Traffic Incident Summary
Active as of:
Severity:
Category:
InformationThere was an issue retrieving the traffic information for this location. Please try a different location or try again shortly.
Advertisements
Track Severe Weather on mobile